Max Supporter — 9HA4064 — position and weather

sailwx.info

Track history (hours):
 
Tides and Currents Weather Stations Pressure Air Temp Water Temp Dewpoint Dewpoint Depression Visibility Wind Speed Wind Dir Waves Ship Positions

Max Supporter

Last reported at 2018-Apr-19 16:45 UTC. Time now 2018-Apr-22 08:18 UTC.
Position N 36°00' W 005°26'.

Length 100 m; draft 6.1 m.

Type: Cargo ship. MMSI: 249036000.

Date/timePositionNaut miles runAvg speedWind from/ knotsBaromVisibWave heightAir tempDewpointWater temp
2018-Apr-19 16:45N 36°00' W 005°26'311.6
2018-Apr-19 16:30N 36°03' W 005°24'5 0.4
2018-Apr-19 04:51N 36°08' W 005°26'0 0.0
2018-Apr-19 04:21N 36°08' W 005°26'0 0.0
2018-Apr-18 20:53N 36°08' W 005°26'0 0.0
2018-Apr-18 16:55N 36°08' W 005°26'1 0.2
2018-Apr-18 09:17N 36°09' W 005°26'0 0.1
2018-Apr-18 08:59N 36°09' W 005°26'0 0.0
2018-Apr-18 06:34N 36°09' W 005°26'0 0.0
2018-Apr-18 06:22N 36°09' W 005°26'0 0.0
2018-Apr-18 05:58N 36°09' W 005°26'0 0.0
2018-Apr-18 05:21N 36°09' W 005°26'0 0.0
2018-Apr-18 04:51N 36°09' W 005°26'0 0.0
2018-Apr-18 04:27N 36°09' W 005°26'0 0.0
2018-Apr-18 03:57N 36°09' W 005°26'0 0.0
2018-Apr-18 03:21N 36°09' W 005°26'0 0.0
2018-Apr-18 02:56N 36°09' W 005°26'0 0.0
2018-Apr-18 02:26N 36°09' W 005°26'0 0.0
2018-Apr-18 01:50N 36°09' W 005°26'0 0.0
2018-Apr-18 01:26N 36°09' W 005°26'0 0.0
2018-Apr-18 00:49N 36°09' W 005°26'0 0.0
2018-Apr-18 00:25N 36°09' W 005°26'0 0.0
2018-Apr-17 23:49N 36°09' W 005°26'0 0.0
2018-Apr-17 23:25N 36°09' W 005°26'0 0.0
2018-Apr-17 22:55N 36°09' W 005°26'0 0.0
2018-Apr-17 22:24N 36°09' W 005°26'0 0.0
2018-Apr-17 20:18N 36°09' W 005°26'0 0.0
2018-Apr-17 19:53N 36°09' W 005°26'0 0.0
2018-Apr-17 19:29N 36°09' W 005°26'0 0.0
2018-Apr-17 18:53N 36°09' W 005°26'0 0.0
2018-Apr-17 18:29N 36°09' W 005°26'0 0.0
2018-Apr-17 17:59N 36°09' W 005°26'0 0.0
2018-Apr-17 16:34N 36°09' W 005°26'0 0.1
2018-Apr-17 16:28N 36°09' W 005°26'0 0.0
2018-Apr-17 15:58N 36°09' W 005°26'  
2018-Apr-13 10:56N 36°10' W 005°26'0 0.0
2018-Apr-13 10:30N 36°10' W 005°26'0 0.0
2018-Apr-13 10:00N 36°10' W 005°26'2 3.1
2018-Apr-13 09:15N 36°10' W 005°23'1 4.3
2018-Apr-13 09:00N 36°09' W 005°24'1 2.5
2018-Apr-13 08:30N 36°08' W 005°23'3 6.2
2018-Apr-13 07:58N 36°05' W 005°21'8 0.4
2018-Apr-12 11:08N 36°02' W 005°11'214.1
2018-Apr-12 11:00N 36°01' W 005°13'714.2
2018-Apr-12 10:30N 35°58' W 005°21'714.6
2018-Apr-12 10:00N 35°57' W 005°30'  
Track history (hours):
 
Tides and Currents Weather Stations Pressure Air Temp Water Temp Dewpoint Dewpoint Depression Visibility Wind Speed Wind Dir Waves Ship Positions

Max Supporter

Last reported at 2018-Apr-19 16:45 UTC. Time now 2018-Apr-22 08:18 UTC.
Position N 36°00' W 005°26'.

Length 100 m; draft 6.1 m.

Type: Cargo ship. MMSI: 249036000.

Date/timePositionNaut miles runAvg speedWind from/ knotsBaromVisibWave heightAir tempDewpointWater temp
2018-Apr-19 16:45N 36°00' W 005°26'311.6
2018-Apr-19 16:30N 36°03' W 005°24'5 0.4
2018-Apr-19 04:51N 36°08' W 005°26'0 0.0
2018-Apr-19 04:21N 36°08' W 005°26'0 0.0
2018-Apr-18 20:53N 36°08' W 005°26'0 0.0
2018-Apr-18 16:55N 36°08' W 005°26'1 0.2
2018-Apr-18 09:17N 36°09' W 005°26'0 0.1
2018-Apr-18 08:59N 36°09' W 005°26'0 0.0
2018-Apr-18 06:34N 36°09' W 005°26'0 0.0
2018-Apr-18 06:22N 36°09' W 005°26'0 0.0
2018-Apr-18 05:58N 36°09' W 005°26'0 0.0
2018-Apr-18 05:21N 36°09' W 005°26'0 0.0
2018-Apr-18 04:51N 36°09' W 005°26'0 0.0
2018-Apr-18 04:27N 36°09' W 005°26'0 0.0
2018-Apr-18 03:57N 36°09' W 005°26'0 0.0
2018-Apr-18 03:21N 36°09' W 005°26'0 0.0
2018-Apr-18 02:56N 36°09' W 005°26'0 0.0
2018-Apr-18 02:26N 36°09' W 005°26'0 0.0
2018-Apr-18 01:50N 36°09' W 005°26'0 0.0
2018-Apr-18 01:26N 36°09' W 005°26'0 0.0
2018-Apr-18 00:49N 36°09' W 005°26'0 0.0
2018-Apr-18 00:25N 36°09' W 005°26'0 0.0
2018-Apr-17 23:49N 36°09' W 005°26'0 0.0
2018-Apr-17 23:25N 36°09' W 005°26'0 0.0
2018-Apr-17 22:55N 36°09' W 005°26'0 0.0
2018-Apr-17 22:24N 36°09' W 005°26'0 0.0
2018-Apr-17 20:18N 36°09' W 005°26'0 0.0
2018-Apr-17 19:53N 36°09' W 005°26'0 0.0
2018-Apr-17 19:29N 36°09' W 005°26'0 0.0
2018-Apr-17 18:53N 36°09' W 005°26'0 0.0
2018-Apr-17 18:29N 36°09' W 005°26'0 0.0
2018-Apr-17 17:59N 36°09' W 005°26'0 0.0
2018-Apr-17 16:34N 36°09' W 005°26'0 0.1
2018-Apr-17 16:28N 36°09' W 005°26'0 0.0
2018-Apr-17 15:58N 36°09' W 005°26'  
2018-Apr-13 10:56N 36°10' W 005°26'0 0.0
2018-Apr-13 10:30N 36°10' W 005°26'0 0.0
2018-Apr-13 10:00N 36°10' W 005°26'2 3.1
2018-Apr-13 09:15N 36°10' W 005°23'1 4.3
2018-Apr-13 09:00N 36°09' W 005°24'1 2.5
2018-Apr-13 08:30N 36°08' W 005°23'3 6.2
2018-Apr-13 07:58N 36°05' W 005°21'8 0.4
2018-Apr-12 11:08N 36°02' W 005°11'214.1
2018-Apr-12 11:00N 36°01' W 005°13'714.2
2018-Apr-12 10:30N 35°58' W 005°21'714.6
2018-Apr-12 10:00N 35°57' W 005°30'  

Dump ship's entire track history